TAF Text Data
IDs:
Format:
Raw Decoded Include METAR

Data at: 0849 UTC 09 Apr 2020

Region: TOP
KATL 090738Z 0908/1012 27012G20KT P6SM -SHRA SCT007 BKN015
  TEMPO 0908/0911 VRB20G30KT 4SM TSRA BKN007 OVC015CB
  FM091300 30015G25KT P6SM SCT025
  FM091500 32018G30KT P6SM FEW250
  FM100000 30012G22KT P6SM SCT250


KBOS 090841Z 0909/1012 21009KT P6SM SKC
  FM091100 19007KT P6SM BKN009
  FM091400 16007KT P6SM OVC012
  FM091600 15013G22KT 6SM -SHRA BR OVC025
  FM091800 15016G26KT 2SM +SHRA BR OVC020
  FM092200 23015G30KT 4SM BR VCSH OVC015
  FM092300 26017G37KT P6SM BKN050


KBWI 090520Z 0906/1012 31006KT P6SM FEW250
  FM090800 00000KT P6SM SCT140 BKN200
  FM091100 19006KT P6SM VCSH SCT001 OVC130
  FM091500 22012G28KT P6SM -SHRA SCT150 BKN250
  FM091900 29023G41KT P6SM FEW050 SCT150
  FM100300 29013G21KT P6SM FEW150 SCT250


KCLE 090811Z 0908/1012 30007KT P6SM VCSH SCT009 OVC025
  TEMPO 0908/0910 BKN009
  FM091000 30012KT P6SM SCT015 OVC025
  TEMPO 0911/0913 BKN025
  FM091300 30015G25KT P6SM BKN110
  FM091800 29020G30KT P6SM VCSH SCT040 BKN110
  FM100000 29018G28KT P6SM BKN040
  FM101000 30016G26KT P6SM BKN030


KCLT 090749Z 0908/1012 19004KT P6SM BKN250
  FM090900 23008G15KT P6SM VCSH BKN070
  TEMPO 0909/0912 4SM TSRA BR OVC025CB
  FM091400 28015G26KT P6SM FEW070
  FM100100 30009KT P6SM SCT200


KCVG 090648Z 0907/1012 22010KT P6SM SCT006 SCT120
  FM090800 31010G18KT P6SM BKN006
  FM091100 31016G28KT P6SM SCT250
  FM092100 29018G32KT P6SM SCT060
  FM100000 29013G23KT P6SM VCSH BKN045
  FM100600 30011KT P6SM FEW070


KDCA 090520Z 0906/1012 33007KT P6SM FEW250
  FM091000 17004KT 6SM -SHRA SCT050 BKN150
  FM091400 18013G25KT P6SM VCSH SCT001 OVC150
  FM091700 28019G34KT P6SM VCSH FEW150 SCT250
  FM091900 30023G41KT P6SM FEW050 SCT200
  FM100300 29013G21KT P6SM FEW200 SCT250


KDEN 090539Z 0906/1012 07007KT P6SM SKC
  FM091000 01009KT P6SM SCT040 SCT140
  FM091700 05012KT P6SM BKN035 OVC100
  FM092100 09008KT P6SM OVC025
  FM100300 14010KT P6SM VCSH OVC020
  FM100800 18014KT P6SM BKN025 BKN060


KDFW 090535Z 0906/1012 27004KT P6SM BKN300
  FM090800 36007KT P6SM BKN250
  FM091400 04012KT P6SM SCT120 BKN250
  FM092300 02007KT P6SM OVC050


KDTW 090655Z 0907/1012 32006KT P6SM SCT014 OVC050
  TEMPO 0908/0909 35020G33KT OVC014
  FM090900 34014G22KT P6SM BKN022 OVC045
  FM091200 32012G20KT P6SM SCT040 BKN100
  FM091600 29020G30KT P6SM BKN050
  TEMPO 0919/0923 6SM SHRAPL OVC045
  FM100100 27014G22KT P6SM BKN060


KEWR 090840Z 0909/1012 17005KT P6SM FEW008 BKN040
  FM091000 16012KT P6SM SCT008 BKN050
  FM091400 17015G24KT 3SM -SHRA BR BKN020 BKN060 WS020/18040KT
  TEMPO 0916/0918 2SM TS BR BKN015CB
  FM091900 28024G36KT P6SM SCT035 BKN050
  FM092200 29025G37KT P6SM SCT060
  FM100100 27018G27KT P6SM FEW060
  FM100600 27020G31KT P6SM BKN050


KFLL 090812Z 0908/1012 26008KT P6SM SCT010
  TEMPO 0908/0912 BKN010
  FM091800 24013G22KT P6SM FEW250
  FM100100 26009KT P6SM FEW250


KIAD 090520Z 0906/1012 33006KT P6SM FEW250
  FM090900 VRB03KT 6SM -SHRA SCT050 BKN130
  FM091400 24013G24KT P6SM VCSH SCT150 BKN250
  FM091700 29021G40KT P6SM VCSH FEW060 SCT150
  FM091900 30023G42KT P6SM FEW050 SCT200
  FM100200 29013G21KT P6SM FEW200 SCT250


KIAH 090529Z 0906/1012 VRB03KT P6SM FEW010 BKN250
  FM091000 VRB03KT P6SM SCT012 BKN025
  FM091300 VRB03KT P6SM SCT010 BKN035
  FM092100 18009KT P6SM VCTS SCT040CB OVC250
  FM092300 VRB04KT 6SM SHRA VCTS SCT025CB OVC250
  FM100300 36006KT P6SM VCSH SCT005 OVC025
  FM100800 05006KT P6SM VCSH SCT005 OVC015


KJFK 090840Z 0909/1012 17005KT P6SM FEW005 SCT040
  FM091000 16011KT P6SM SCT005 BKN050
  FM091400 16019G27KT 3SM -SHRA BR BKN020 BKN060 WS020/18050KT
  TEMPO 0916/0918 2SM TS BR BKN015CB
  FM091900 28024G36KT P6SM SCT035 BKN050
  FM092200 29025G37KT P6SM SCT060
  FM100100 27021G30KT P6SM FEW060
  FM100600 28023G33KT P6SM BKN050


KLAS 090849Z 0909/1012 19006KT P6SM FEW080 BKN150
  FM091400 19006KT P6SM BKN070
  FM092000 14007KT P6SM VCSH SCT070 SCT120
  FM100300 17008KT P6SM FEW070 BKN120
  FM100700 20008KT P6SM BKN060


KLAX 090558Z 0906/1012 10006KT P6SM VCSH SCT030 BKN040
  FM091400 14006KT 5SM -SHRA BKN025
  FM092000 24010KT P6SM -SHRA OVC025
  FM100200 24010KT P6SM -SHRA OVC035
  FM100800 VRB03KT P6SM VCSH OVC050


KLGA 090840Z 0909/1012 17006KT P6SM FEW005 SCT040
  FM091000 15010KT P6SM SCT005 BKN050
  FM091400 16017G25KT 3SM -SHRA BR BKN020 BKN060 WS020/18045KT
  TEMPO 0916/0918 2SM TS BR BKN015CB
  FM091900 29024G36KT P6SM SCT035 BKN050
  FM092200 30025G37KT P6SM SCT060
  FM100200 27018G28KT P6SM FEW060
  FM100600 28021G32KT P6SM BKN050


KMCO 090528Z 0906/1012 25010KT P6SM SCT015
  FM090900 25010KT P6SM SCT008 BKN015
  FM091400 26012G18KT P6SM BKN025
  FM091600 28014G21KT P6SM FEW025 SCT045 SCT250
  FM100000 27012KT P6SM FEW020 SCT250
  FM100600 25007KT P6SM SCT006 BKN012


KMDW 090838Z 0909/1012 29014G27KT P6SM SKC
  FM091400 30018G30KT P6SM SCT050
  FM091600 30022G35KT P6SM BKN050
  TEMPO 0919/0923 30030G45KT 3SM SHRASNGS
  FM100100 31016G24KT P6SM SCT120


KMEM 090524Z 0906/1012 23009G15KT P6SM BKN010 WS020/27045KT
  FM090700 31009KT P6SM BKN080
  FM090900 36013KT P6SM SCT100
  FM091500 03012KT P6SM FEW250
  FM100300 32005KT P6SM BKN250
  FM101000 02010KT P6SM FEW250


KMIA 090812Z 0908/1012 26007KT P6SM SCT010
  TEMPO 0908/0912 BKN010
  FM091700 25012G21KT P6SM FEW250
  FM100100 26009KT P6SM FEW250


KMSP 090520Z 0906/1012 31012G21KT P6SM SCT100
  FM091000 30014G23KT P6SM SCT080 BKN120
  FM091500 31020G30KT P6SM BKN080
  PROB30 0915/0920 6SM -RASN BKN040
  FM092000 32020G29KT P6SM BKN050
  FM100300 31010G18KT P6SM FEW200


KORD 090837Z 0909/1012 29014G27KT P6SM SKC
  FM091400 30018G30KT P6SM SCT050
  FM091600 30022G35KT P6SM BKN050
  TEMPO 0919/0923 30030G45KT 3SM SHRASNGS
  FM100100 31016G24KT P6SM SCT120


KPDX 090520Z 0906/1006 30008KT P6SM SKC
  FM090800 33003KT P6SM SKC
  FM092000 31009KT P6SM SKC


TAF COR KPHL 090801Z 0908/1012 14005KT P6SM BKN250
  FM091000 17008KT P6SM BKN040
  TEMPO 0910/0914 5SM SHRA BR OVC025
  FM091400 21011G19KT P6SM VCSH BKN040
  FM091600 26015G25KT 5SM SHRA VCTS BKN040CB
  FM091900 29024G38KT P6SM SCT080
  FM100000 28013G23KT P6SM BKN100


KPHX 090827Z 0908/1012 24005KT P6SM SCT070
  FM091100 12004KT P6SM SCT070
  FM092300 26004KT P6SM FEW070


KPIT 090558Z 0906/1012 23011G23KT 6SM -RA OVC050 WS020/21040KT
  FM090900 23013G22KT 5SM -RA OVC025
  FM091200 27015G30KT 6SM -RA OVC015
  FM091500 30015G30KT P6SM -RA BKN025
  FM091700 29018G32KT P6SM -SHRA BKN035
  FM100000 28015G35KT P6SM VCSH BKN035
  FM100600 28016G32KT P6SM VCSH BKN030


KSAN 090810Z 0908/1012 11008KT P6SM VCSH SCT025 BKN035
  FM091500 19005KT P6SM VCSH SCT025 BKN040
  FM092100 21010KT P6SM VCSH SCT025 BKN050
  FM100200 21008KT 6SM -SHRA SCT015 BKN030
  FM100600 20012KT 5SM SHRA SCT015 BKN025


KSEA 090835Z 0909/1012 03005KT P6SM FEW250
  FM091700 33009KT P6SM SCT250
  FM100500 03005KT P6SM FEW250


KSFO 090539Z 0906/1012 19007KT P6SM BKN015
  FM091800 15006KT P6SM FEW015 BKN025
  FM092000 VRB05KT P6SM FEW015 SCT025 BKN050
  FM092300 27012KT P6SM FEW025 BKN050
  FM100500 25005KT P6SM BKN050


KSLC 090524Z 0906/1012 29010KT P6SM FEW200
  FM090800 15006KT P6SM SCT060 SCT120
  FM092100 22010KT P6SM VCSH SCT030 BKN060
  FM100400 15006KT P6SM SCT060 BKN120


KSTL 090520Z 0906/1012 33010G20KT P6SM BKN120
  FM090800 32010KT P6SM SKC
  FM091500 30012G20KT P6SM FEW250
  FM092100 30020G30KT P6SM BKN100
  FM100200 33012G20KT P6SM SCT250
  FM100800 31010KT P6SM SKC


KTPA 090541Z 0906/1012 24008KT P6SM SCT012 SCT120
  TEMPO 0910/0914 SCT008 BKN012
  FM091400 26012KT P6SM SCT015 BKN025
  FM091900 28014KT P6SM SCT025 BKN250
  FM100100 25008KT P6SM SCT020 BKN050